< < Back
Terminal Aerodrome Forecast


Current Version              Previous Versions:   1  2  3  4  5  6  7  8  9  

Terminal Aerodrome Forecast

242
FTUS42 KGSP 121509 AAB
TAFGSP
TAF AMD
KGSP 121509Z 1215/1312 03005KT P6SM SCT035 OVC090
      TEMPO 1215/1217 1 1/2SM -SN BKN035
     FM122000 28005KT P6SM BKN050
     FM122100 23006KT P6SM SCT050
     FM122300 25007KT P6SM SCT250
     FM130500 29006KT P6SM FEW250=



Latest METAR

606
SAUS70 KWBC 121600 RRG
MTRGSP
METAR KGSP 121553Z 01007KT 1SM SN BR BKN014 BKN025 OVC030 M02/M03 A3017
RMK AO2 SLP222 P0003 T10221033


USA.gov is the U.S. government's official web portal to all federal, state and local government web resources and services.